aviador You're here:

YPPD Decoded Metar

PORT HEDLAND in AUSTRALIA
Report Time2017-04-29 17:00:00
UTC Time2017-04-29 17:46:48
Flight Rules unknown UNKNOWN
Wind150° at 04 kt
W.Decomp.*RWY 14: 4.0 kt HW 0.6 kt RCW
RWY 18: 3.4 kt HW 2.1 kt LCW
W.Rank150° ranks 13
Current wind is below 150° avg. (8.1)
VisibilityN/A
Phenomena:N/A
Clouds:N/A
Expected CloudBase > 3,600 ft AGL from Temp-Dew spread
CeilingNone
Temp22°C (ISA +7)
Dew Point13°C (57% RH)
AAT21.5°C
QNH1015 hPa
Density Alt974 ft
Elevation20 ft
Report Wrong Elevation
Raw Report
METAR YPPD 291700Z AUTO 15004KT //// // NCD 22/13 Q1015=

Extra information for YPPD:More info

Metar Taf Metar & Taf Last 4 Metars F.Rules Stats Wind Profile Meteogram Temp Stats Airport Information Weather charts Add Link Nearby VenuesMetar ALERT Operation Metar Decoded Social comments